createdAt,value
2022-12-31T00:00:53.107Z,73.45
2022-12-31T00:01:54.864Z,74.59
2022-12-31T00:02:56.667Z,74.23
2022-12-31T00:03:58.554Z,74.11
2022-12-31T00:05:00.272Z,74.19
2022-12-31T00:06:02.635Z,74.74
2022-12-31T00:07:04.640Z,74.17
2022-12-31T00:08:06.370Z,74.41
2022-12-31T00:09:08.401Z,74.18
2022-12-31T00:10:10.233Z,73.82
2022-12-31T00:11:12.802Z,72.88
2022-12-31T00:12:14.592Z,73.67
2022-12-31T00:13:16.748Z,74.52
2022-12-31T00:14:18.817Z,74.67
2022-12-31T00:15:20.676Z,75.34
2022-12-31T00:16:25.560Z,75.60
2022-12-31T00:17:27.339Z,75.62
2022-12-31T00:18:29.025Z,75.16
2022-12-31T00:19:30.736Z,75.18
2022-12-31T00:20:32.520Z,75.13
2022-12-31T00:21:34.904Z,75.63
2022-12-31T00:22:36.814Z,75.07
2022-12-31T00:23:38.768Z,75.18
2022-12-31T00:24:40.532Z,75.25
2022-12-31T00:25:42.234Z,75.30
2022-12-31T00:26:43.953Z,75.27
2022-12-31T00:27:45.719Z,76.33
2022-12-31T00:28:48.656Z,76.12
2022-12-31T00:29:50.408Z,75.79
2022-12-31T00:30:52.163Z,76.68
2022-12-31T00:31:53.884Z,75.99
2022-12-31T00:32:55.615Z,75.74
2022-12-31T00:33:58.129Z,76.24
2022-12-31T00:34:59.871Z,75.63
2022-12-31T00:36:13.347Z,74.65
2022-12-31T00:37:15.032Z,74.52
2022-12-31T00:38:16.783Z,74.37
2022-12-31T00:39:18.482Z,74.06
2022-12-31T00:40:20.356Z,74.71
2022-12-31T00:41:23.333Z,74.10
2022-12-31T00:42:25.122Z,73.54
2022-12-31T00:43:27.163Z,73.25
2022-12-31T00:44:28.920Z,73.07
2022-12-31T00:45:30.645Z,73.85
2022-12-31T00:46:32.530Z,73.32
2022-12-31T00:47:34.307Z,74.09
2022-12-31T00:48:36.520Z,73.69
2022-12-31T00:49:38.217Z,73.84
2022-12-31T00:50:39.908Z,74.20
2022-12-31T00:51:41.809Z,74.68
2022-12-31T00:52:43.506Z,74.80
2022-12-31T00:53:45.613Z,74.61
2022-12-31T00:54:47.345Z,74.66
2022-12-31T00:55:49.143Z,73.72
2022-12-31T00:56:50.958Z,73.78
2022-12-31T00:57:52.713Z,73.95
2022-12-31T00:58:54.656Z,74.52
2022-12-31T00:59:56.459Z,75.53
2022-12-31T01:00:58.261Z,75.25
2022-12-31T01:02:00.119Z,75.16
2022-12-31T01:03:02.061Z,75.23
2022-12-31T01:04:09.930Z,75.80
2022-12-31T01:05:11.629Z,75.64
2022-12-31T01:06:13.378Z,76.57
2022-12-31T01:07:15.063Z,75.84
2022-12-31T01:08:18.340Z,75.70
2022-12-31T01:09:20.137Z,75.18
2022-12-31T01:10:41.892Z,74.93
2022-12-31T01:11:43.949Z,75.27
2022-12-31T01:12:45.687Z,74.51
2022-12-31T01:13:53.644Z,75.05
2022-12-31T01:14:55.336Z,74.49
2022-12-31T01:15:57.107Z,74.58
2022-12-31T01:16:58.820Z,74.42
2022-12-31T01:18:00.489Z,74.32
2022-12-31T01:19:05.739Z,74.70
2022-12-31T01:20:07.946Z,74.42
2022-12-31T01:21:11.892Z,73.77
2022-12-31T01:22:13.660Z,73.29
2022-12-31T01:23:15.350Z,73.07
2022-12-31T01:24:17.951Z,73.10
2022-12-31T01:25:20.144Z,73.78
2022-12-31T01:26:22.017Z,74.16
2022-12-31T01:27:23.732Z,73.78
2022-12-31T01:28:25.487Z,73.81
2022-12-31T01:29:27.373Z,74.46
2022-12-31T01:30:29.398Z,73.88
2022-12-31T01:31:31.272Z,73.94
2022-12-31T01:32:33.121Z,74.02
2022-12-31T01:33:35.772Z,73.85
2022-12-31T01:34:37.512Z,74.08
2022-12-31T01:35:39.203Z,74.11
2022-12-31T01:36:41.309Z,73.61
2022-12-31T01:37:43.009Z,73.57
2022-12-31T01:38:44.707Z,74.51
2022-12-31T01:39:46.430Z,74.04
2022-12-31T01:40:48.135Z,74.33
2022-12-31T01:41:49.859Z,74.08
2022-12-31T01:42:58.188Z,73.91
2022-12-31T01:44:01.018Z,74.34
2022-12-31T01:45:03.050Z,74.03
2022-12-31T01:46:04.909Z,74.00
2022-12-31T01:47:14.970Z,73.13
2022-12-31T01:48:22.431Z,73.44
2022-12-31T01:49:28.236Z,73.39
2022-12-31T01:50:34.153Z,73.19
2022-12-31T01:51:37.925Z,74.29
2022-12-31T01:52:46.945Z,73.19
2022-12-31T01:53:50.654Z,73.75
2022-12-31T01:55:05.993Z,73.51
2022-12-31T01:56:08.071Z,73.80
2022-12-31T01:57:11.220Z,73.79
2022-12-31T01:58:41.681Z,74.18
2022-12-31T01:59:45.193Z,73.90
2022-12-31T02:00:48.289Z,73.68
2022-12-31T02:01:53.708Z,74.53
2022-12-31T02:02:55.841Z,73.93
2022-12-31T02:03:58.770Z,74.40
2022-12-31T02:05:05.895Z,74.68
2022-12-31T02:06:17.124Z,74.38
2022-12-31T02:07:18.947Z,74.76
2022-12-31T02:08:21.567Z,74.13
2022-12-31T02:09:23.393Z,74.45
2022-12-31T02:10:25.159Z,74.60
2022-12-31T02:11:30.451Z,74.40
2022-12-31T02:12:32.349Z,74.01
2022-12-31T02:13:34.157Z,73.64
2022-12-31T02:14:42.919Z,73.61
2022-12-31T02:16:14.488Z,73.81
2022-12-31T02:17:40.513Z,73.65
2022-12-31T02:19:01.433Z,73.03
2022-12-31T02:20:15.134Z,73.31
2022-12-31T02:21:36.645Z,73.61
2022-12-31T02:22:56.904Z,73.60
2022-12-31T02:24:36.839Z,73.65
2022-12-31T02:26:08.806Z,73.61
2022-12-31T02:27:16.073Z,73.87
2022-12-31T02:28:43.714Z,74.00
2022-12-31T02:30:14.369Z,73.60
2022-12-31T02:31:20.629Z,73.56
2022-12-31T02:32:31.424Z,73.28
2022-12-31T02:33:39.540Z,74.34
2022-12-31T02:34:52.620Z,74.13
2022-12-31T02:35:58.970Z,73.61
2022-12-31T02:37:05.899Z,73.71
2022-12-31T02:38:20.267Z,74.25
2022-12-31T02:39:22.520Z,73.40
2022-12-31T02:40:24.377Z,73.89
2022-12-31T02:41:45.029Z,73.92
2022-12-31T02:42:53.297Z,73.91
2022-12-31T02:43:56.927Z,74.25
2022-12-31T02:44:58.633Z,74.26
2022-12-31T02:46:14.499Z,74.74
2022-12-31T02:47:48.577Z,75.00
2022-12-31T02:49:05.591Z,74.66
2022-12-31T02:50:27.595Z,74.98
2022-12-31T02:51:36.886Z,75.22
2022-12-31T02:52:50.943Z,75.38
2022-12-31T02:54:09.176Z,76.16
2022-12-31T02:55:35.474Z,76.71
2022-12-31T02:57:06.453Z,76.98
2022-12-31T02:58:14.374Z,76.64
2022-12-31T02:59:50.457Z,76.38
2022-12-31T03:01:16.710Z,76.49
2022-12-31T03:02:22.303Z,76.09
2022-12-31T03:03:26.427Z,76.91
2022-12-31T03:04:36.312Z,76.53
2022-12-31T03:05:43.023Z,76.58
2022-12-31T03:06:44.811Z,75.56
2022-12-31T03:07:46.977Z,75.39
2022-12-31T03:09:07.399Z,75.06
2022-12-31T03:10:10.001Z,74.90
2022-12-31T03:11:31.654Z,75.53
2022-12-31T03:12:49.053Z,75.72
2022-12-31T03:13:50.753Z,74.93
2022-12-31T03:14:52.984Z,75.29
2022-12-31T03:15:54.704Z,74.51
2022-12-31T03:16:56.444Z,74.61
2022-12-31T03:18:15.673Z,74.44
2022-12-31T03:19:36.389Z,75.12
2022-12-31T03:21:08.104Z,75.11
2022-12-31T03:22:28.172Z,75.27
2022-12-31T03:23:34.529Z,75.64
2022-12-31T03:24:54.685Z,74.91
2022-12-31T03:25:57.921Z,74.96
2022-12-31T03:26:59.633Z,74.00
2022-12-31T03:28:10.521Z,74.10
2022-12-31T03:29:12.243Z,74.20
2022-12-31T03:30:16.391Z,74.85
2022-12-31T03:31:18.134Z,75.48
2022-12-31T03:32:19.874Z,75.60
2022-12-31T03:33:22.836Z,74.97
2022-12-31T03:34:24.567Z,76.04
2022-12-31T03:35:27.833Z,75.80
2022-12-31T03:36:29.545Z,75.98
2022-12-31T03:37:31.431Z,75.75
2022-12-31T03:38:33.112Z,75.65
2022-12-31T03:39:34.856Z,76.96
2022-12-31T03:40:42.355Z,77.54
2022-12-31T03:41:44.044Z,77.05
2022-12-31T03:42:45.802Z,76.99
2022-12-31T03:43:47.511Z,77.17
2022-12-31T03:44:49.241Z,77.22
2022-12-31T03:45:52.519Z,76.38
2022-12-31T03:46:54.293Z,76.56
2022-12-31T03:47:56.042Z,76.44
2022-12-31T03:48:58.780Z,76.10
2022-12-31T03:50:00.538Z,75.64
2022-12-31T03:51:02.231Z,75.43
2022-12-31T03:52:06.484Z,75.86
2022-12-31T03:53:08.396Z,75.36
2022-12-31T03:54:10.152Z,76.12
2022-12-31T03:55:12.065Z,75.45
2022-12-31T03:56:13.781Z,75.71
2022-12-31T03:57:15.622Z,75.51
2022-12-31T03:58:17.306Z,75.53
2022-12-31T03:59:19.004Z,75.39
2022-12-31T04:00:22.262Z,75.74
2022-12-31T04:01:24.509Z,75.91
2022-12-31T04:02:29.229Z,76.95
2022-12-31T04:03:31.252Z,77.00
2022-12-31T04:04:33.002Z,77.63
2022-12-31T04:05:34.728Z,78.86
2022-12-31T04:06:36.459Z,78.81
2022-12-31T04:07:38.850Z,78.80
2022-12-31T04:08:40.556Z,78.84
2022-12-31T04:09:42.370Z,79.15
2022-12-31T04:10:44.076Z,79.80
2022-12-31T04:11:45.774Z,78.74
2022-12-31T04:12:47.677Z,79.82
2022-12-31T04:13:49.377Z,79.43
2022-12-31T04:14:51.330Z,79.50
2022-12-31T04:15:53.059Z,79.42
2022-12-31T04:16:54.799Z,79.28
2022-12-31T04:17:56.499Z,78.45
2022-12-31T04:18:58.722Z,77.56
2022-12-31T04:20:00.525Z,76.67
2022-12-31T04:21:03.740Z,77.22
2022-12-31T04:22:05.978Z,76.58
2022-12-31T04:23:07.697Z,76.05
2022-12-31T04:24:09.816Z,75.05
2022-12-31T04:25:11.832Z,74.57
2022-12-31T04:26:13.563Z,74.63
2022-12-31T04:27:15.900Z,74.82
2022-12-31T04:28:17.627Z,75.06
2022-12-31T04:29:19.369Z,74.47
2022-12-31T04:30:21.075Z,75.29
2022-12-31T04:31:23.179Z,74.80
2022-12-31T04:32:24.950Z,74.70
2022-12-31T04:33:26.640Z,74.71
2022-12-31T04:34:28.398Z,74.58
2022-12-31T04:35:30.115Z,75.17
2022-12-31T04:36:31.885Z,75.23
2022-12-31T04:37:33.605Z,75.68
2022-12-31T04:38:35.316Z,75.16
2022-12-31T04:39:37.105Z,74.98
2022-12-31T04:41:01.496Z,74.62
2022-12-31T04:42:03.312Z,74.92
2022-12-31T04:43:05.027Z,74.74
2022-12-31T04:44:06.748Z,74.52
2022-12-31T04:45:08.856Z,74.04
2022-12-31T04:46:10.932Z,73.53
2022-12-31T04:47:12.657Z,73.81
2022-12-31T04:48:14.361Z,74.24
2022-12-31T04:49:16.139Z,74.44
2022-12-31T04:50:17.927Z,74.47
2022-12-31T04:51:20.914Z,74.71
2022-12-31T04:52:23.116Z,74.90
2022-12-31T04:53:25.100Z,75.07
2022-12-31T04:54:26.788Z,75.68
2022-12-31T04:55:28.535Z,75.97
2022-12-31T04:56:31.043Z,75.75
2022-12-31T04:57:32.750Z,75.48
2022-12-31T04:58:35.498Z,75.22
2022-12-31T04:59:37.256Z,75.64
2022-12-31T05:00:39.029Z,75.81
2022-12-31T05:01:41.222Z,75.79
2022-12-31T05:02:43.161Z,76.10
2022-12-31T05:03:45.005Z,75.15
2022-12-31T05:04:46.775Z,74.91
2022-12-31T05:05:50.239Z,75.52
2022-12-31T05:06:51.936Z,74.52
2022-12-31T05:07:53.637Z,74.37
2022-12-31T05:08:55.898Z,74.90
2022-12-31T05:09:57.587Z,75.12
2022-12-31T05:10:59.411Z,74.29
2022-12-31T05:12:01.166Z,74.27
2022-12-31T05:13:02.938Z,74.31
2022-12-31T05:14:04.671Z,74.50
2022-12-31T05:15:07.135Z,74.67
2022-12-31T05:16:09.689Z,74.67
2022-12-31T05:17:11.414Z,75.57
2022-12-31T05:18:13.558Z,75.75
2022-12-31T05:19:18.456Z,76.10
2022-12-31T05:20:20.182Z,76.80
2022-12-31T05:21:22.507Z,76.82
2022-12-31T05:22:30.651Z,76.48
2022-12-31T05:23:32.576Z,76.63
2022-12-31T05:24:34.291Z,77.35
2022-12-31T05:25:36.199Z,76.97
2022-12-31T05:26:38.010Z,77.59
2022-12-31T05:27:39.809Z,77.15
2022-12-31T05:28:41.539Z,77.79
2022-12-31T05:29:43.301Z,78.38
2022-12-31T05:30:45.169Z,78.80
2022-12-31T05:31:46.879Z,78.87
2022-12-31T05:32:48.618Z,78.15
2022-12-31T05:33:50.317Z,78.97
2022-12-31T05:34:53.658Z,79.27
2022-12-31T05:35:57.993Z,78.80
2022-12-31T05:36:59.670Z,79.27
2022-12-31T05:38:01.607Z,79.14
2022-12-31T05:39:03.333Z,78.87
2022-12-31T05:40:06.567Z,78.55
2022-12-31T05:41:08.727Z,78.21
2022-12-31T05:42:10.449Z,78.04
2022-12-31T05:43:12.202Z,78.55
2022-12-31T05:44:13.993Z,78.64
2022-12-31T05:45:16.030Z,78.04
2022-12-31T05:46:17.851Z,78.68
2022-12-31T05:47:19.762Z,77.96
2022-12-31T05:48:21.875Z,77.03
2022-12-31T05:49:23.664Z,77.30
2022-12-31T05:50:25.452Z,77.12
2022-12-31T05:51:27.231Z,77.47
2022-12-31T05:52:28.925Z,77.24
2022-12-31T05:53:30.668Z,76.56
2022-12-31T05:54:32.782Z,77.03
2022-12-31T05:55:34.500Z,77.11
2022-12-31T05:56:36.206Z,77.25
2022-12-31T05:57:38.407Z,77.36
2022-12-31T05:58:40.103Z,78.37
2022-12-31T05:59:41.824Z,78.16
2022-12-31T06:00:44.323Z,78.45
2022-12-31T06:01:46.161Z,78.03
2022-12-31T06:02:47.946Z,77.67
2022-12-31T06:03:49.699Z,77.25
2022-12-31T06:04:51.562Z,77.57
2022-12-31T06:05:53.255Z,77.77
2022-12-31T06:06:55.131Z,77.24
2022-12-31T06:07:56.807Z,77.12
2022-12-31T06:08:58.535Z,76.29
2022-12-31T06:10:00.392Z,77.29
2022-12-31T06:11:02.156Z,76.80
2022-12-31T06:12:04.632Z,76.80
2022-12-31T06:13:07.063Z,77.25
2022-12-31T06:14:09.091Z,77.70
2022-12-31T06:15:11.026Z,76.81
2022-12-31T06:16:13.240Z,76.80
2022-12-31T06:17:14.959Z,76.84
2022-12-31T06:18:16.655Z,76.58
2022-12-31T06:19:18.360Z,76.21
2022-12-31T06:20:20.070Z,76.64
2022-12-31T06:21:22.587Z,76.96
2022-12-31T06:22:24.350Z,76.70
2022-12-31T06:23:26.042Z,77.58
2022-12-31T06:24:27.784Z,77.75
2022-12-31T06:25:29.510Z,77.25
2022-12-31T06:26:31.264Z,77.28
2022-12-31T06:27:32.959Z,76.82
2022-12-31T06:28:35.007Z,76.56
2022-12-31T06:29:36.724Z,77.29
2022-12-31T06:30:38.430Z,76.52
2022-12-31T06:31:40.112Z,75.96
2022-12-31T06:32:42.271Z,76.71
2022-12-31T06:33:43.963Z,76.14
2022-12-31T06:34:45.703Z,76.00
2022-12-31T06:35:47.482Z,76.61
2022-12-31T06:36:49.179Z,76.55
2022-12-31T06:37:52.316Z,76.50
2022-12-31T06:38:54.134Z,77.43
2022-12-31T06:39:55.818Z,77.38
2022-12-31T06:40:57.682Z,77.00
2022-12-31T06:41:59.510Z,77.48
2022-12-31T06:43:01.340Z,77.79
2022-12-31T06:44:03.136Z,76.75
2022-12-31T06:45:05.465Z,77.14
2022-12-31T06:46:09.406Z,77.67
2022-12-31T06:47:11.135Z,77.09
2022-12-31T06:48:13.316Z,76.93
2022-12-31T06:49:15.176Z,76.20
2022-12-31T06:50:16.981Z,76.51
2022-12-31T06:51:20.945Z,76.55
2022-12-31T06:52:22.728Z,76.66
2022-12-31T06:53:24.439Z,77.00
2022-12-31T06:54:26.125Z,76.51
2022-12-31T06:55:28.137Z,76.15
2022-12-31T06:56:34.375Z,75.47
2022-12-31T06:57:37.294Z,75.54
2022-12-31T06:58:40.044Z,74.22
2022-12-31T06:59:42.038Z,73.81
2022-12-31T07:00:58.746Z,73.54
2022-12-31T07:02:22.319Z,72.62
2022-12-31T07:03:55.671Z,73.00
2022-12-31T07:05:18.739Z,73.09
2022-12-31T07:06:39.062Z,72.70
2022-12-31T07:08:08.571Z,72.72
2022-12-31T07:09:25.100Z,72.60
2022-12-31T07:10:49.847Z,73.24
2022-12-31T07:12:04.008Z,73.53
2022-12-31T07:13:20.716Z,73.31
2022-12-31T07:14:41.493Z,73.68
2022-12-31T07:16:07.792Z,73.62
2022-12-31T07:17:26.355Z,74.45
2022-12-31T07:18:43.002Z,74.65
2022-12-31T07:20:09.255Z,75.79
2022-12-31T07:21:16.415Z,76.22
2022-12-31T07:22:18.460Z,77.19
2022-12-31T07:23:20.609Z,77.29
2022-12-31T07:24:22.663Z,77.69
2022-12-31T07:25:24.763Z,77.98
2022-12-31T07:26:56.748Z,77.58
2022-12-31T07:27:58.809Z,78.82
2022-12-31T07:29:08.626Z,79.46
2022-12-31T07:30:15.031Z,80.26
2022-12-31T07:31:34.774Z,79.52
2022-12-31T07:33:21.466Z,84.47
2022-12-31T07:34:47.172Z,85.63
2022-12-31T07:35:57.065Z,79.52
2022-12-31T07:37:07.025Z,77.24
2022-12-31T07:38:54.445Z,76.35
2022-12-31T07:40:05.282Z,73.99
2022-12-31T07:41:23.503Z,73.51
2022-12-31T07:42:54.012Z,71.73
2022-12-31T07:44:06.400Z,71.36
2022-12-31T07:45:11.098Z,71.42
2022-12-31T07:46:36.166Z,74.18
2022-12-31T07:47:39.632Z,78.46
2022-12-31T07:48:41.501Z,80.44
2022-12-31T07:49:44.359Z,76.32
2022-12-31T07:50:46.313Z,72.43
2022-12-31T07:51:48.321Z,73.43
2022-12-31T07:52:50.245Z,72.75
2022-12-31T07:53:52.095Z,70.20
2022-12-31T07:54:53.852Z,68.68
2022-12-31T07:56:01.400Z,64.55
2022-12-31T07:57:03.274Z,64.29
2022-12-31T07:58:29.207Z,59.46
2022-12-31T07:59:39.584Z,58.66
2022-12-31T08:00:41.534Z,57.37
2022-12-31T08:02:21.751Z,55.49
2022-12-31T08:03:32.284Z,54.43
2022-12-31T08:04:39.851Z,54.05
2022-12-31T08:06:11.533Z,51.14
2022-12-31T08:07:22.748Z,50.91
2022-12-31T08:08:33.088Z,49.43
2022-12-31T08:09:37.764Z,48.81
2022-12-31T08:10:54.849Z,47.96
2022-12-31T08:12:02.184Z,45.92
2022-12-31T08:13:09.092Z,46.10
2022-12-31T08:14:13.620Z,45.61
2022-12-31T08:15:18.411Z,44.97
2022-12-31T08:16:21.887Z,43.99
2022-12-31T08:17:23.952Z,43.84
2022-12-31T08:18:26.068Z,42.76
2022-12-31T08:19:31.201Z,41.08
2022-12-31T08:20:36.506Z,41.80
2022-12-31T08:22:00.080Z,40.90
2022-12-31T08:23:01.720Z,40.26
2022-12-31T08:24:39.748Z,39.46
2022-12-31T08:25:56.450Z,39.90
2022-12-31T08:27:06.347Z,39.92
2022-12-31T08:28:26.104Z,38.83
2022-12-31T08:29:55.315Z,37.81
2022-12-31T08:31:15.941Z,36.78
2022-12-31T08:32:26.593Z,36.94
2022-12-31T08:34:00.744Z,36.31
2022-12-31T08:35:16.857Z,37.16
2022-12-31T08:36:30.191Z,36.04
2022-12-31T08:37:43.616Z,35.44
2022-12-31T08:39:03.404Z,34.28
2022-12-31T08:40:15.874Z,34.12
2022-12-31T08:41:26.497Z,32.46
2022-12-31T08:42:54.783Z,33.24
2022-12-31T08:44:08.736Z,32.92
2022-12-31T08:45:38.386Z,33.02
2022-12-31T08:46:45.614Z,33.05
2022-12-31T08:48:18.575Z,32.17
2022-12-31T08:49:20.633Z,31.84
2022-12-31T08:50:22.686Z,32.39
2022-12-31T08:51:26.619Z,32.31
2022-12-31T08:52:28.815Z,32.00
2022-12-31T08:53:31.021Z,30.83
2022-12-31T08:54:32.931Z,30.80
2022-12-31T08:55:35.080Z,31.05
2022-12-31T08:56:50.433Z,31.01
2022-12-31T08:58:10.613Z,30.14
2022-12-31T08:59:30.716Z,29.66
2022-12-31T09:00:35.205Z,30.40
2022-12-31T09:02:03.406Z,29.26
2022-12-31T09:03:24.022Z,30.15
2022-12-31T09:05:05.091Z,29.97
2022-12-31T09:06:15.679Z,29.53
2022-12-31T09:07:28.088Z,30.16
2022-12-31T09:08:50.953Z,28.99
2022-12-31T09:10:14.841Z,29.70
2022-12-31T09:11:34.691Z,29.81
2022-12-31T09:12:50.932Z,29.87
2022-12-31T09:14:10.637Z,30.05
2022-12-31T09:15:32.628Z,29.76
2022-12-31T09:17:11.172Z,29.37
2022-12-31T09:18:13.334Z,29.69
2022-12-31T09:19:15.117Z,28.99
2022-12-31T09:20:23.430Z,29.71
2022-12-31T09:21:25.249Z,29.66
2022-12-31T09:22:27.295Z,29.74
2022-12-31T09:23:29.298Z,31.61
2022-12-31T09:24:31.321Z,31.22
2022-12-31T09:25:33.397Z,31.17
2022-12-31T09:27:02.215Z,31.96
2022-12-31T09:28:36.924Z,31.27
2022-12-31T09:29:54.695Z,30.73
2022-12-31T09:31:05.463Z,31.25
2022-12-31T09:32:19.780Z,31.96
2022-12-31T09:33:36.730Z,31.81
2022-12-31T09:35:07.544Z,30.57
2022-12-31T09:36:17.082Z,31.49
2022-12-31T09:37:30.817Z,30.90
2022-12-31T09:38:32.543Z,31.39
2022-12-31T09:39:43.053Z,30.87
2022-12-31T09:40:44.692Z,30.62
2022-12-31T09:42:01.418Z,30.07
2022-12-31T09:43:44.906Z,30.13
2022-12-31T09:45:04.344Z,30.38
2022-12-31T09:46:33.711Z,30.16
2022-12-31T09:47:59.807Z,29.97
2022-12-31T09:49:10.445Z,29.90
2022-12-31T09:50:39.552Z,29.59
2022-12-31T09:52:02.557Z,29.73
2022-12-31T09:53:16.529Z,29.11
2022-12-31T09:54:39.484Z,28.91
2022-12-31T09:56:25.952Z,29.47
2022-12-31T09:57:42.249Z,29.83
2022-12-31T09:58:59.210Z,29.88
2022-12-31T10:00:00.858Z,30.01
2022-12-31T10:01:26.585Z,29.39
2022-12-31T10:02:31.102Z,29.56
2022-12-31T10:03:47.758Z,28.85
2022-12-31T10:05:20.926Z,30.17
2022-12-31T10:07:03.842Z,30.09
2022-12-31T10:08:23.449Z,30.04
2022-12-31T10:09:49.576Z,29.07
2022-12-31T10:10:57.557Z,28.75
2022-12-31T10:12:36.227Z,28.80
2022-12-31T10:13:53.791Z,29.69
2022-12-31T10:15:14.540Z,28.45
2022-12-31T10:16:31.732Z,28.37
2022-12-31T10:17:59.715Z,28.68
2022-12-31T10:19:13.227Z,27.95
2022-12-31T10:20:31.762Z,27.13
2022-12-31T10:22:29.176Z,27.64
2022-12-31T10:23:47.509Z,27.42
2022-12-31T10:25:01.080Z,26.71
2022-12-31T10:26:20.440Z,28.42
2022-12-31T10:27:33.982Z,28.28
2022-12-31T10:28:57.655Z,28.01
2022-12-31T10:30:21.024Z,29.12
2022-12-31T10:31:38.656Z,29.04
2022-12-31T10:33:01.715Z,29.59
2022-12-31T10:34:26.111Z,28.69
2022-12-31T10:35:31.253Z,28.88
2022-12-31T10:36:56.030Z,29.05
2022-12-31T10:38:26.102Z,28.59
2022-12-31T10:39:47.800Z,28.20
2022-12-31T10:40:52.235Z,28.00
2022-12-31T10:42:09.075Z,28.40
2022-12-31T10:43:52.241Z,27.57
2022-12-31T10:44:53.931Z,27.65
2022-12-31T10:46:28.040Z,28.74
2022-12-31T10:48:07.470Z,27.94
2022-12-31T10:49:38.229Z,28.58
2022-12-31T10:50:54.977Z,27.88
2022-12-31T10:51:59.412Z,28.11
2022-12-31T10:53:19.394Z,28.64
2022-12-31T10:54:23.720Z,28.51
2022-12-31T10:55:25.572Z,29.36
2022-12-31T10:56:48.565Z,27.98
2022-12-31T10:58:05.394Z,29.86
2022-12-31T10:59:42.826Z,31.33
2022-12-31T11:01:01.752Z,29.97
2022-12-31T11:02:22.247Z,29.97
2022-12-31T11:03:30.060Z,30.45
2022-12-31T11:04:47.035Z,30.76
2022-12-31T11:05:51.487Z,30.29
2022-12-31T11:07:08.462Z,30.39
2022-12-31T11:08:34.491Z,31.27
2022-12-31T11:09:45.208Z,31.27
2022-12-31T11:10:49.761Z,30.61
2022-12-31T11:12:19.401Z,30.94
2022-12-31T11:13:33.010Z,30.43
2022-12-31T11:14:40.474Z,31.84
2022-12-31T11:15:50.365Z,31.68
2022-12-31T11:17:47.439Z,32.36
2022-12-31T11:19:04.248Z,33.17
2022-12-31T11:20:27.563Z,32.89
2022-12-31T11:21:54.388Z,32.32
2022-12-31T11:23:14.479Z,34.22
2022-12-31T11:24:37.195Z,33.86
2022-12-31T11:25:38.832Z,33.55
2022-12-31T11:26:55.810Z,34.15
2022-12-31T11:28:38.203Z,33.32
2022-12-31T11:30:17.343Z,34.30
2022-12-31T11:31:40.841Z,34.67
2022-12-31T11:32:57.366Z,34.84
2022-12-31T11:33:59.023Z,35.02
2022-12-31T11:35:19.274Z,34.84
2022-12-31T11:36:26.820Z,36.19
2022-12-31T11:37:42.666Z,35.38
2022-12-31T11:39:24.601Z,36.07
2022-12-31T11:40:43.454Z,36.73
2022-12-31T11:41:45.119Z,37.60
2022-12-31T11:43:00.896Z,37.89
2022-12-31T11:44:20.995Z,37.47
2022-12-31T11:46:00.409Z,37.86
2022-12-31T11:47:31.104Z,38.36
2022-12-31T11:49:11.080Z,37.78
2022-12-31T11:50:32.229Z,38.70
2022-12-31T11:51:52.580Z,39.52
2022-12-31T11:53:12.456Z,39.07
2022-12-31T11:54:42.693Z,39.55
2022-12-31T11:55:58.133Z,39.97
2022-12-31T11:57:34.666Z,39.80
2022-12-31T11:58:36.431Z,40.97
2022-12-31T11:59:38.228Z,40.97
2022-12-31T12:00:43.849Z,41.38
2022-12-31T12:02:13.664Z,42.28
2022-12-31T12:03:15.510Z,41.25
2022-12-31T12:04:17.327Z,41.24
2022-12-31T12:05:22.230Z,41.09
2022-12-31T12:06:28.784Z,41.57
2022-12-31T12:07:32.620Z,41.76
2022-12-31T12:08:34.800Z,41.93
2022-12-31T12:09:36.825Z,42.34
2022-12-31T12:10:38.456Z,41.98
2022-12-31T12:11:40.971Z,42.04
2022-12-31T12:12:44.715Z,41.81
2022-12-31T12:13:46.701Z,41.61
2022-12-31T12:14:55.197Z,42.29
2022-12-31T12:16:03.173Z,42.40
2022-12-31T12:17:13.788Z,42.06
2022-12-31T12:18:36.994Z,42.33
2022-12-31T12:19:53.148Z,42.45
2022-12-31T12:21:03.516Z,42.64
2022-12-31T12:22:13.628Z,41.96
2022-12-31T12:23:24.222Z,42.00
2022-12-31T12:24:28.400Z,42.86
2022-12-31T12:25:40.245Z,42.21
2022-12-31T12:26:44.574Z,43.08
2022-12-31T12:27:47.456Z,42.96
2022-12-31T12:28:49.192Z,43.36
2022-12-31T12:29:50.950Z,42.63
2022-12-31T12:31:01.958Z,43.21
2022-12-31T12:32:16.779Z,43.15
2022-12-31T12:33:20.301Z,42.86
2022-12-31T12:34:28.696Z,43.74
2022-12-31T12:35:36.158Z,43.60
2022-12-31T12:36:47.169Z,43.58
2022-12-31T12:38:04.876Z,43.87
2022-12-31T12:39:06.983Z,44.23
2022-12-31T12:40:22.033Z,43.86
2022-12-31T12:41:26.607Z,44.76
2022-12-31T12:42:29.285Z,43.51
2022-12-31T12:43:36.646Z,44.18
2022-12-31T12:44:40.169Z,44.28
2022-12-31T12:45:52.127Z,44.14
2022-12-31T12:46:54.669Z,44.07
2022-12-31T12:48:02.523Z,43.81
2022-12-31T12:49:04.751Z,43.96
2022-12-31T12:50:15.878Z,43.71
2022-12-31T12:51:35.992Z,43.66
2022-12-31T12:52:46.722Z,43.85
2022-12-31T12:54:39.278Z,43.65
2022-12-31T12:56:00.260Z,43.56
2022-12-31T12:57:24.274Z,43.26
2022-12-31T12:58:43.009Z,43.93
2022-12-31T13:00:01.748Z,43.93
2022-12-31T13:01:24.252Z,43.96
2022-12-31T13:02:53.601Z,44.80
2022-12-31T13:04:34.115Z,43.92
2022-12-31T13:05:58.422Z,44.07
2022-12-31T13:07:02.975Z,44.12
2022-12-31T13:08:10.600Z,43.32
2022-12-31T13:09:27.855Z,43.76
2022-12-31T13:11:06.412Z,43.62
2022-12-31T13:12:24.597Z,43.71
2022-12-31T13:13:49.558Z,43.47
2022-12-31T13:15:11.783Z,43.50
2022-12-31T13:16:47.334Z,43.54
2022-12-31T13:18:24.148Z,43.57
2022-12-31T13:19:46.529Z,43.42
2022-12-31T13:21:01.629Z,43.44
2022-12-31T13:22:14.657Z,43.66
2022-12-31T13:23:36.186Z,43.14
2022-12-31T13:24:59.957Z,43.51
2022-12-31T13:26:01.597Z,43.92
2022-12-31T13:27:39.269Z,43.99
2022-12-31T13:28:43.548Z,43.72
2022-12-31T13:29:48.346Z,43.70
2022-12-31T13:30:58.347Z,43.45
2022-12-31T13:32:08.976Z,43.82
2022-12-31T13:33:24.544Z,44.66
2022-12-31T13:34:30.758Z,44.66
2022-12-31T13:35:57.823Z,44.60
2022-12-31T13:37:06.549Z,44.73
2022-12-31T13:38:36.766Z,44.68
2022-12-31T13:39:42.395Z,44.44
2022-12-31T13:40:53.928Z,44.74
2022-12-31T13:42:05.439Z,44.66
2022-12-31T13:43:33.525Z,44.93
2022-12-31T13:45:14.882Z,45.21
2022-12-31T13:46:37.845Z,45.02
2022-12-31T13:47:46.149Z,45.10
2022-12-31T13:49:01.199Z,45.04
2022-12-31T13:50:20.036Z,45.56
2022-12-31T13:51:37.571Z,45.61
2022-12-31T13:52:46.372Z,45.81
2022-12-31T13:54:01.963Z,46.25
2022-12-31T13:55:13.467Z,45.80
2022-12-31T13:56:24.084Z,45.90
2022-12-31T13:57:43.515Z,45.95
2022-12-31T13:58:56.256Z,46.19
2022-12-31T14:00:03.726Z,45.70
2022-12-31T14:01:30.726Z,45.85
2022-12-31T14:02:46.303Z,46.00
2022-12-31T14:03:58.852Z,46.40
2022-12-31T14:05:09.471Z,46.25
2022-12-31T14:06:52.355Z,46.62
2022-12-31T14:07:56.898Z,47.00
2022-12-31T14:08:59.142Z,46.68
2022-12-31T14:10:00.977Z,46.86
2022-12-31T14:11:18.801Z,47.24
2022-12-31T14:12:41.643Z,46.91
2022-12-31T14:14:15.744Z,47.16
2022-12-31T14:15:26.249Z,47.52
2022-12-31T14:16:30.950Z,47.65
2022-12-31T14:17:44.534Z,47.94
2022-12-31T14:19:08.813Z,47.99
2022-12-31T14:20:25.579Z,48.26
2022-12-31T14:21:47.227Z,48.34
2022-12-31T14:23:20.560Z,48.63
2022-12-31T14:24:48.042Z,48.81
2022-12-31T14:25:55.497Z,48.57
2022-12-31T14:27:01.672Z,48.84
2022-12-31T14:28:06.655Z,49.06
2022-12-31T14:29:11.227Z,48.39
2022-12-31T14:30:22.443Z,49.21
2022-12-31T14:31:24.146Z,49.04
2022-12-31T14:32:50.563Z,49.61
2022-12-31T14:34:16.926Z,50.02
2022-12-31T14:35:44.146Z,50.21
2022-12-31T14:37:02.320Z,50.49
2022-12-31T14:38:41.699Z,50.73
2022-12-31T14:40:11.636Z,50.72
2022-12-31T14:41:51.471Z,51.17
2022-12-31T14:43:25.536Z,51.04
2022-12-31T14:45:00.259Z,51.49
2022-12-31T14:46:26.316Z,51.54
2022-12-31T14:47:43.889Z,51.25
2022-12-31T14:49:06.708Z,51.38
2022-12-31T14:50:15.948Z,51.92
2022-12-31T14:51:17.799Z,51.61
2022-12-31T14:52:24.065Z,51.87
2022-12-31T14:53:27.554Z,51.33
2022-12-31T14:54:38.697Z,51.87
2022-12-31T14:55:41.076Z,51.42
2022-12-31T14:56:44.121Z,51.90
2022-12-31T14:59:32.204Z,51.14
2022-12-31T15:00:38.814Z,51.49
2022-12-31T15:01:45.723Z,51.26
2022-12-31T15:02:53.662Z,51.50
2022-12-31T15:03:58.185Z,51.06
2022-12-31T15:05:12.143Z,51.20
2022-12-31T15:06:23.101Z,50.60